createdAt,value
2019-02-25T00:00:22.069Z,5.28
2019-02-25T00:01:32.006Z,5.23
2019-02-25T00:02:41.191Z,5.26
2019-02-25T00:03:51.144Z,5.25
2019-02-25T00:05:00.877Z,5.2
2019-02-25T00:06:10.826Z,5.16
2019-02-25T00:07:20.518Z,5.2
2019-02-25T00:08:29.968Z,5.23
2019-02-25T00:09:39.916Z,5.22
2019-02-25T00:10:49.857Z,5.19
2019-02-25T00:11:59.802Z,5.15
2019-02-25T00:13:09.723Z,5.18
2019-02-25T00:14:19.662Z,5.15
2019-02-25T00:15:29.594Z,5.08
2019-02-25T00:16:39.283Z,5.15
2019-02-25T00:17:48.956Z,5.19
2019-02-25T00:18:58.646Z,5.15
2019-02-25T00:20:08.610Z,5.19
2019-02-25T00:21:18.548Z,5.12
2019-02-25T00:22:28.227Z,5.13
2019-02-25T00:23:38.167Z,5
2019-02-25T00:24:47.861Z,5.07
2019-02-25T00:25:57.793Z,5.02
2019-02-25T00:27:07.773Z,5
2019-02-25T00:28:17.213Z,5.01
2019-02-25T00:29:27.157Z,5.01
2019-02-25T00:30:37.086Z,5
2019-02-25T00:31:47.030Z,5
2019-02-25T00:32:56.480Z,4.97
2019-02-25T00:34:06.157Z,5.08
2019-02-25T00:35:16.126Z,5.01
2019-02-25T00:36:25.811Z,4.97
2019-02-25T00:37:35.258Z,4.94
2019-02-25T00:38:44.951Z,4.83
2019-02-25T00:39:54.633Z,4.84
2019-02-25T00:41:04.127Z,4.84
2019-02-25T00:42:14.064Z,4.84
2019-02-25T00:43:23.997Z,4.87
2019-02-25T00:44:33.942Z,4.87
2019-02-25T00:45:43.636Z,4.76
2019-02-25T00:46:53.569Z,4.83
2019-02-25T00:48:03.517Z,4.74
2019-02-25T00:49:13.483Z,4.68
2019-02-25T00:50:23.269Z,4.74
2019-02-25T00:51:32.962Z,4.68
2019-02-25T00:52:42.904Z,4.74
2019-02-25T00:53:52.853Z,4.64
2019-02-25T00:55:02.704Z,4.57
2019-02-25T00:56:12.647Z,4.58
2019-02-25T00:57:22.611Z,4.53
2019-02-25T00:58:32.544Z,4.63
2019-02-25T00:59:42.483Z,4.49
2019-02-25T01:00:52.492Z,4.56
2019-02-25T01:02:02.421Z,4.5
2019-02-25T01:03:12.103Z,4.52
2019-02-25T01:04:22.060Z,4.49
2019-02-25T01:05:31.496Z,4.53
2019-02-25T01:06:41.427Z,4.57
2019-02-25T01:07:51.117Z,4.49
2019-02-25T01:09:00.549Z,4.56
2019-02-25T01:10:09.728Z,4.38
2019-02-25T01:11:19.660Z,4.39
2019-02-25T01:12:29.594Z,4.36
2019-02-25T01:13:39.282Z,4.38
2019-02-25T01:14:49.223Z,4.38
2019-02-25T01:15:58.667Z,4.4
2019-02-25T01:17:08.591Z,4.39
2019-02-25T01:18:18.530Z,4.36
2019-02-25T01:19:28.217Z,4.27
2019-02-25T01:20:38.178Z,4.32
2019-02-25T01:21:47.615Z,4.27
2019-02-25T01:22:57.567Z,4.22
2019-02-25T01:24:07.507Z,4.22
2019-02-25T01:25:17.453Z,4.32
2019-02-25T01:26:27.394Z,4.34
2019-02-25T01:27:37.095Z,4.3
2019-02-25T01:28:46.772Z,4.3
2019-02-25T01:29:56.213Z,4.4
2019-02-25T01:31:05.906Z,4.36
2019-02-25T01:32:15.844Z,4.32
2019-02-25T01:33:25.289Z,4.25
2019-02-25T01:34:35.257Z,4.25
2019-02-25T01:35:45.195Z,4.2
2019-02-25T01:36:54.875Z,4.14
2019-02-25T01:38:04.877Z,4.09
2019-02-25T01:39:14.823Z,4.13
2019-02-25T01:40:24.265Z,4.02
2019-02-25T01:41:34.205Z,4.03
2019-02-25T01:42:43.942Z,4.07
2019-02-25T01:43:53.647Z,4.04
2019-02-25T01:45:03.600Z,4.02
2019-02-25T01:46:13.289Z,4.13
2019-02-25T01:47:22.985Z,4
2019-02-25T01:48:32.667Z,4.04
2019-02-25T01:49:42.617Z,4.12
2019-02-25T01:50:52.550Z,4.07
2019-02-25T01:52:02.231Z,4.03
2019-02-25T01:53:11.919Z,3.96
2019-02-25T01:54:21.618Z,3.95
2019-02-25T01:55:31.307Z,3.94
2019-02-25T01:56:40.743Z,3.92
2019-02-25T01:57:50.665Z,3.88
2019-02-25T01:59:00.600Z,3.92
2019-02-25T02:00:10.284Z,3.96
2019-02-25T02:01:19.727Z,3.84
2019-02-25T02:02:29.672Z,3.88
2019-02-25T02:03:39.350Z,3.85
2019-02-25T02:04:48.819Z,3.88
2019-02-25T02:05:58.299Z,3.82
2019-02-25T02:07:07.749Z,3.82
2019-02-25T02:08:17.702Z,3.91
2019-02-25T02:09:27.646Z,3.92
2019-02-25T02:10:37.334Z,3.84
2019-02-25T02:11:46.783Z,3.85
2019-02-25T02:12:56.728Z,3.86
2019-02-25T02:14:06.417Z,3.86
2019-02-25T02:15:16.113Z,3.84
2019-02-25T02:16:26.053Z,3.84
2019-02-25T02:17:36.060Z,3.91
2019-02-25T02:18:45.999Z,3.94
2019-02-25T02:19:55.942Z,3.82
2019-02-25T02:21:05.624Z,3.88
2019-02-25T02:22:15.570Z,3.82
2019-02-25T02:23:25.522Z,3.86
2019-02-25T02:24:35.450Z,3.85
2019-02-25T02:25:45.388Z,3.96
2019-02-25T02:26:55.342Z,3.95
2019-02-25T02:28:04.784Z,3.94
2019-02-25T02:29:13.715Z,3.95
2019-02-25T02:30:23.670Z,3.91
2019-02-25T02:31:33.636Z,3.95
2019-02-25T02:32:43.592Z,4.03
2019-02-25T02:33:53.614Z,3.99
2019-02-25T02:35:03.051Z,4.13
2019-02-25T02:36:16.424Z,4.12
2019-02-25T02:37:26.357Z,4.03
2019-02-25T02:38:36.300Z,4
2019-02-25T02:39:46.225Z,4.09
2019-02-25T02:40:56.189Z,4.09
2019-02-25T02:42:06.143Z,4.03
2019-02-25T02:43:16.102Z,4.13
2019-02-25T02:44:25.809Z,4.06
2019-02-25T02:45:35.255Z,4.06
2019-02-25T02:46:44.689Z,4.02
2019-02-25T02:47:54.616Z,4.06
2019-02-25T02:49:04.571Z,4.13
2019-02-25T02:50:14.515Z,4.03
2019-02-25T02:51:24.465Z,4.12
2019-02-25T02:52:34.411Z,4.16
2019-02-25T02:53:44.369Z,4.22
2019-02-25T02:54:54.116Z,4.22
2019-02-25T02:56:04.097Z,4.16
2019-02-25T02:57:13.793Z,4.18
2019-02-25T02:58:23.221Z,4.2
2019-02-25T02:59:32.914Z,4.12
2019-02-25T03:00:42.911Z,4.18
2019-02-25T03:01:52.599Z,4.2
2019-02-25T03:03:02.539Z,4.14
2019-02-25T03:04:12.483Z,4.1
2019-02-25T03:05:22.434Z,4.09
2019-02-25T03:06:32.382Z,4.1
2019-02-25T03:07:42.075Z,4.04
2019-02-25T03:08:52.021Z,4.07
2019-02-25T03:10:03.720Z,4.06
2019-02-25T03:11:13.437Z,4.04
2019-02-25T03:12:23.129Z,4.14
2019-02-25T03:13:33.164Z,4.02
2019-02-25T03:14:43.133Z,4.09
2019-02-25T03:15:52.828Z,4.04
2019-02-25T03:17:02.623Z,4.13
2019-02-25T03:18:12.558Z,4.07
2019-02-25T03:19:22.008Z,4.03
2019-02-25T03:20:31.693Z,3.99
2019-02-25T03:21:41.627Z,3.96
2019-02-25T03:22:51.573Z,3.95
2019-02-25T03:24:01.029Z,3.88
2019-02-25T03:25:10.966Z,3.96
2019-02-25T03:26:20.899Z,3.96
2019-02-25T03:27:30.845Z,3.94
2019-02-25T03:28:40.524Z,3.88
2019-02-25T03:29:50.209Z,3.85
2019-02-25T03:30:59.923Z,3.82
2019-02-25T03:32:09.883Z,3.91
2019-02-25T03:33:19.616Z,3.86
2019-02-25T03:34:29.598Z,3.78
2019-02-25T03:35:39.530Z,3.68
2019-02-25T03:36:49.467Z,3.76
2019-02-25T03:37:59.417Z,3.85
2019-02-25T03:39:08.874Z,3.73
2019-02-25T03:40:18.590Z,3.73
2019-02-25T03:41:28.524Z,3.68
2019-02-25T03:42:38.224Z,3.71
2019-02-25T03:43:48.002Z,3.73
2019-02-25T03:44:57.433Z,3.67
2019-02-25T03:46:07.370Z,3.67
2019-02-25T03:47:17.299Z,3.63
2019-02-25T03:48:27.236Z,3.56
2019-02-25T03:49:37.181Z,3.61
2019-02-25T03:50:47.132Z,3.48
2019-02-25T03:51:57.104Z,3.56
2019-02-25T03:53:07.046Z,3.55
2019-02-25T03:54:16.978Z,3.46
2019-02-25T03:55:26.433Z,3.45
2019-02-25T03:56:36.382Z,3.41
2019-02-25T03:57:46.075Z,3.36
2019-02-25T03:58:55.846Z,3.34
2019-02-25T04:00:05.297Z,3.29
2019-02-25T04:01:15.224Z,3.29
2019-02-25T04:02:24.760Z,3.16
2019-02-25T04:03:34.459Z,3.15
2019-02-25T04:04:43.938Z,3.29
2019-02-25T04:05:53.880Z,3.24
2019-02-25T04:07:03.568Z,3.19
2019-02-25T04:08:13.269Z,3.16
2019-02-25T04:09:23.212Z,3.24
2019-02-25T04:10:33.146Z,3.16
2019-02-25T04:11:42.846Z,3.15
2019-02-25T04:12:52.544Z,3.06
2019-02-25T04:14:02.487Z,3.11
2019-02-25T04:15:12.427Z,3.03
2019-02-25T04:16:22.394Z,3.15
2019-02-25T04:17:31.834Z,3.08
2019-02-25T04:18:41.781Z,3.06
2019-02-25T04:19:51.722Z,3.06
2019-02-25T04:21:01.679Z,2.98
2019-02-25T04:22:11.628Z,3.01
2019-02-25T04:23:21.572Z,2.93
2019-02-25T04:24:31.520Z,2.94
2019-02-25T04:25:41.225Z,2.95
2019-02-25T04:26:51.195Z,2.93
2019-02-25T04:28:03.078Z,2.87
2019-02-25T04:29:13.026Z,2.97
2019-02-25T04:30:22.978Z,2.93
2019-02-25T04:31:33.009Z,2.93
2019-02-25T04:32:42.696Z,2.93
2019-02-25T04:33:52.636Z,2.98
2019-02-25T04:35:02.069Z,2.94
2019-02-25T04:36:12.022Z,2.91
2019-02-25T04:37:21.967Z,2.94
2019-02-25T04:38:31.912Z,3
2019-02-25T04:39:41.854Z,3
2019-02-25T04:40:51.803Z,2.97
2019-02-25T04:42:01.734Z,2.94
2019-02-25T04:43:11.678Z,2.9
2019-02-25T04:44:21.610Z,2.91
2019-02-25T04:45:31.305Z,2.93
2019-02-25T04:46:40.990Z,2.97
2019-02-25T04:47:51.017Z,2.97
2019-02-25T04:49:00.448Z,2.94
2019-02-25T04:50:10.143Z,2.94
2019-02-25T04:51:20.126Z,2.97
2019-02-25T04:52:30.086Z,2.95
2019-02-25T04:53:40.036Z,3.01
2019-02-25T04:54:49.735Z,3.03
2019-02-25T04:55:59.380Z,3.08
2019-02-25T04:57:08.583Z,2.98
2019-02-25T04:58:18.302Z,3.05
2019-02-25T04:59:27.791Z,3.05
2019-02-25T05:00:37.490Z,3.06
2019-02-25T05:01:47.454Z,2.98
2019-02-25T05:02:57.450Z,3
2019-02-25T05:04:06.649Z,3.03
2019-02-25T05:05:16.599Z,3
2019-02-25T05:06:26.314Z,2.9
2019-02-25T05:07:36.264Z,2.95
2019-02-25T05:08:46.220Z,2.93
2019-02-25T05:09:56.168Z,2.95
2019-02-25T05:11:06.131Z,2.91
2019-02-25T05:12:15.817Z,2.93
2019-02-25T05:13:25.748Z,2.95
2019-02-25T05:14:35.704Z,2.87
2019-02-25T05:15:45.397Z,2.88
2019-02-25T05:16:55.348Z,2.9
2019-02-25T05:18:05.287Z,2.97
2019-02-25T05:19:15.257Z,2.93
2019-02-25T05:20:24.961Z,2.97
2019-02-25T05:21:34.911Z,2.95
2019-02-25T05:22:44.600Z,2.94
2019-02-25T05:23:54.571Z,2.91
2019-02-25T05:25:04.522Z,3.05
2019-02-25T05:26:14.217Z,3.06
2019-02-25T05:27:23.912Z,3.09
2019-02-25T05:28:33.858Z,3.15
2019-02-25T05:29:43.961Z,3.12
2019-02-25T05:30:53.908Z,3.13
2019-02-25T05:32:03.847Z,3.09
2019-02-25T05:33:13.305Z,3.11
2019-02-25T05:34:22.994Z,3.05
2019-02-25T05:35:32.956Z,2.95
2019-02-25T05:36:43.004Z,2.95
2019-02-25T05:37:52.952Z,2.95
2019-02-25T05:39:03.660Z,2.93
2019-02-25T05:40:13.367Z,3
2019-02-25T05:41:23.420Z,2.98
2019-02-25T05:42:33.105Z,2.94
2019-02-25T05:43:43.064Z,2.93
2019-02-25T05:44:52.755Z,2.98
2019-02-25T05:46:02.453Z,2.91
2019-02-25T05:47:12.140Z,2.9
2019-02-25T05:48:22.111Z,2.87
2019-02-25T05:49:32.053Z,2.91
2019-02-25T05:50:42.008Z,2.9
2019-02-25T05:51:51.725Z,2.87
2019-02-25T05:53:01.418Z,2.95
2019-02-25T05:54:11.150Z,2.97
2019-02-25T05:55:21.120Z,2.93
2019-02-25T05:56:31.076Z,2.94
2019-02-25T05:57:40.766Z,2.9
2019-02-25T05:58:50.748Z,2.97
2019-02-25T06:00:00.546Z,2.93
2019-02-25T06:01:10.542Z,2.9
2019-02-25T06:02:20.493Z,2.85
2019-02-25T06:03:30.190Z,2.85
2019-02-25T06:04:39.734Z,2.85
2019-02-25T06:05:49.678Z,2.88
2019-02-25T06:06:59.710Z,2.95
2019-02-25T06:08:09.414Z,2.94
2019-02-25T06:09:18.864Z,2.95
2019-02-25T06:10:28.801Z,3.01
2019-02-25T06:11:38.496Z,3.01
2019-02-25T06:12:48.428Z,2.95
2019-02-25T06:13:58.426Z,3.05
2019-02-25T06:15:08.165Z,3.03
2019-02-25T06:16:18.113Z,3.05
2019-02-25T06:17:28.110Z,3.08
2019-02-25T06:18:38.047Z,3.06
2019-02-25T06:19:47.730Z,3.05
2019-02-25T06:20:57.666Z,2.95
2019-02-25T06:22:07.368Z,2.91
2019-02-25T06:23:17.327Z,2.97
2019-02-25T06:24:27.275Z,2.98
2019-02-25T06:25:36.971Z,2.93
2019-02-25T06:26:46.667Z,2.9
2019-02-25T06:27:56.360Z,2.93
2019-02-25T06:29:06.328Z,2.94
2019-02-25T06:30:16.044Z,2.9
2019-02-25T06:31:25.987Z,2.93
2019-02-25T06:32:35.680Z,2.88
2019-02-25T06:33:47.467Z,2.83
2019-02-25T06:34:57.509Z,2.91
2019-02-25T06:36:07.454Z,2.85
2019-02-25T06:37:17.473Z,2.83
2019-02-25T06:38:27.216Z,2.85
2019-02-25T06:39:37.157Z,2.82
2019-02-25T06:40:47.111Z,2.8
2019-02-25T06:41:56.566Z,2.76
2019-02-25T06:43:06.507Z,2.82
2019-02-25T06:44:16.446Z,2.85
2019-02-25T06:45:26.127Z,2.87
2019-02-25T06:46:36.622Z,2.79
2019-02-25T06:47:46.576Z,2.76
2019-02-25T06:48:56.520Z,2.8
2019-02-25T06:50:06.489Z,2.76
2019-02-25T06:51:15.935Z,2.73
2019-02-25T06:52:25.891Z,2.77
2019-02-25T06:53:35.856Z,2.76
2019-02-25T06:54:45.787Z,2.77
2019-02-25T06:55:55.514Z,2.83
2019-02-25T06:57:04.950Z,2.82
2019-02-25T06:58:14.631Z,2.87
2019-02-25T06:59:24.582Z,2.87
2019-02-25T07:00:34.275Z,2.88
2019-02-25T07:01:44.030Z,2.91
2019-02-25T07:02:53.980Z,2.87
2019-02-25T07:04:03.689Z,2.88
2019-02-25T07:05:13.650Z,2.88
2019-02-25T07:06:23.597Z,2.91
2019-02-25T07:07:33.290Z,2.9
2019-02-25T07:08:42.994Z,2.82
2019-02-25T07:09:52.942Z,2.83
2019-02-25T07:11:02.880Z,2.9
2019-02-25T07:12:12.847Z,2.85
2019-02-25T07:13:22.824Z,2.91
2019-02-25T07:14:32.786Z,2.9
2019-02-25T07:15:42.547Z,2.82
2019-02-25T07:16:52.294Z,2.88
2019-02-25T07:18:02.565Z,2.9
2019-02-25T07:19:14.457Z,2.88
2019-02-25T07:20:23.640Z,2.9
2019-02-25T07:21:33.613Z,3
2019-02-25T07:22:43.592Z,2.94
2019-02-25T07:23:53.312Z,2.94
2019-02-25T07:25:02.801Z,2.91
2019-02-25T07:26:12.560Z,2.94
2019-02-25T07:27:22.510Z,2.94
2019-02-25T07:28:32.215Z,2.9
2019-02-25T07:29:44.272Z,3.01
2019-02-25T07:30:54.011Z,3
2019-02-25T07:32:03.477Z,3.01
2019-02-25T07:33:13.469Z,3.05
2019-02-25T07:34:23.464Z,3.09
2019-02-25T07:35:33.410Z,3.12
2019-02-25T07:36:42.889Z,3.16
2019-02-25T07:37:54.202Z,3.06
2019-02-25T07:39:04.167Z,3.13
2019-02-25T07:40:14.122Z,3.22
2019-02-25T07:41:23.807Z,3.18
2019-02-25T07:42:33.745Z,3.27
2019-02-25T07:43:43.694Z,3.19
2019-02-25T07:44:53.399Z,3.24
2019-02-25T07:46:03.129Z,3.36
2019-02-25T07:47:12.819Z,3.37
2019-02-25T07:48:22.842Z,3.46
2019-02-25T07:49:32.029Z,3.52
2019-02-25T07:50:49.522Z,3.45
2019-02-25T07:51:59.214Z,3.53
2019-02-25T07:53:09.205Z,3.63
2019-02-25T07:54:19.173Z,3.59
2019-02-25T07:55:29.125Z,3.67
2019-02-25T07:56:39.092Z,3.67
2019-02-25T07:57:49.046Z,3.82
2019-02-25T07:58:59.040Z,3.77
2019-02-25T08:00:08.744Z,3.84
2019-02-25T08:01:18.456Z,3.92
2019-02-25T08:02:28.131Z,3.89
2019-02-25T08:03:37.849Z,3.85
2019-02-25T08:04:47.848Z,3.89
2019-02-25T08:05:57.809Z,3.99
2019-02-25T08:07:07.543Z,4.14
2019-02-25T08:08:17.243Z,3.96
2019-02-25T08:09:27.197Z,3.99
2019-02-25T08:10:37.181Z,4.22
2019-02-25T08:11:46.905Z,4.25
2019-02-25T08:12:56.850Z,4.25
2019-02-25T08:14:06.556Z,4.38
2019-02-25T08:15:16.278Z,4.4
2019-02-25T08:16:26.259Z,4.43
2019-02-25T08:17:36.224Z,4.49
2019-02-25T08:18:45.950Z,4.52
2019-02-25T08:19:55.908Z,4.63
2019-02-25T08:21:05.693Z,4.6
2019-02-25T08:22:15.860Z,4.67
2019-02-25T08:23:25.826Z,4.67
2019-02-25T08:24:35.833Z,4.89
2019-02-25T08:25:45.530Z,4.92
2019-02-25T08:26:57.037Z,5.01
2019-02-25T08:28:06.743Z,5.15
2019-02-25T08:29:16.483Z,5.59
2019-02-25T08:30:26.183Z,5.8
2019-02-25T08:31:36.141Z,6.13
2019-02-25T08:32:45.837Z,6.32
2019-02-25T08:33:57.871Z,6.56
2019-02-25T08:35:07.561Z,6.87
2019-02-25T08:36:17.249Z,7.05
2019-02-25T08:37:26.941Z,7.04
2019-02-25T08:38:36.867Z,7
2019-02-25T08:39:46.819Z,6.97
2019-02-25T08:40:56.486Z,6.92
2019-02-25T08:42:06.511Z,7.05
2019-02-25T08:43:16.483Z,7.21
2019-02-25T08:44:26.473Z,7.37
2019-02-25T08:45:36.453Z,7.53
2019-02-25T08:46:46.452Z,7.64
2019-02-25T08:47:56.148Z,7.75
2019-02-25T08:49:08.053Z,7.77
2019-02-25T08:50:17.761Z,7.91
2019-02-25T08:51:27.722Z,8.16
2019-02-25T08:52:37.677Z,8.39
2019-02-25T08:53:47.631Z,8.66
2019-02-25T08:54:57.656Z,8.79
2019-02-25T08:56:07.407Z,9.12
2019-02-25T08:57:17.430Z,9.4
2019-02-25T08:58:26.648Z,9.69
2019-02-25T08:59:36.087Z,9.81
2019-02-25T09:00:46.047Z,9.97
2019-02-25T09:01:55.999Z,10.07
2019-02-25T09:03:06.005Z,10.13
2019-02-25T09:04:15.967Z,10.2
2019-02-25T09:05:25.697Z,10.33
2019-02-25T09:06:35.400Z,10.28
2019-02-25T09:07:47.487Z,10.48
2019-02-25T09:08:57.233Z,10.53
2019-02-25T09:10:07.215Z,10.61
2019-02-25T09:11:19.349Z,10.76
2019-02-25T09:12:29.326Z,10.76
2019-02-25T09:13:39.031Z,11.01
2019-02-25T09:14:49.246Z,11.16
2019-02-25T09:15:59.073Z,11.26
2019-02-25T09:17:09.045Z,11.25
2019-02-25T09:18:18.271Z,11.16
2019-02-25T09:19:28.296Z,11.19
2019-02-25T09:20:38.291Z,11.27
2019-02-25T09:21:48.242Z,11.45
2019-02-25T09:22:57.951Z,11.6
2019-02-25T09:24:07.647Z,11.48
2019-02-25T09:25:17.617Z,11.33
2019-02-25T09:26:27.317Z,11.34
2019-02-25T09:27:37.286Z,11.48
2019-02-25T09:28:46.998Z,11.18
2019-02-25T09:29:56.943Z,10.97
2019-02-25T09:31:08.179Z,10.89
2019-02-25T09:32:19.053Z,10.75
2019-02-25T09:33:29.130Z,10.79
2019-02-25T09:34:38.581Z,10.76
2019-02-25T09:35:48.554Z,10.87
2019-02-25T09:36:58.511Z,10.97
2019-02-25T09:38:08.224Z,10.97
2019-02-25T09:39:19.310Z,11.04
2019-02-25T09:40:29.268Z,11.08
2019-02-25T09:41:39.225Z,11.25
2019-02-25T09:42:49.200Z,11.6
2019-02-25T09:43:59.163Z,11.83
2019-02-25T09:45:09.109Z,11.81
2019-02-25T09:46:19.066Z,11.96
2019-02-25T09:47:29.039Z,12.02
2019-02-25T09:48:38.768Z,12.18
2019-02-25T09:49:48.717Z,12.29
2019-02-25T09:50:58.800Z,12.29
2019-02-25T09:52:08.845Z,12.28
2019-02-25T09:53:18.601Z,12.35
2019-02-25T09:54:28.090Z,12.43
2019-02-25T09:55:38.090Z,12.37
2019-02-25T09:56:48.132Z,12.43
2019-02-25T09:57:58.364Z,12.35
2019-02-25T09:59:07.850Z,12.43
2019-02-25T10:00:17.805Z,12.43
2019-02-25T10:01:27.527Z,12.39
2019-02-25T10:02:37.541Z,12.51
2019-02-25T10:03:47.519Z,12.75
2019-02-25T10:04:57.480Z,12.9
2019-02-25T10:06:07.196Z,12.94
2019-02-25T10:07:18.027Z,12.87
2019-02-25T10:08:28.009Z,12.87
2019-02-25T10:09:37.719Z,12.75
2019-02-25T10:10:47.170Z,12.76
2019-02-25T10:11:57.129Z,12.51
2019-02-25T10:13:07.083Z,12.39
2019-02-25T10:14:16.799Z,12.25
2019-02-25T10:15:26.748Z,12.45
2019-02-25T10:16:36.737Z,12.69
2019-02-25T10:17:46.746Z,12.68
2019-02-25T10:18:56.702Z,12.47
2019-02-25T10:20:06.666Z,12.5
2019-02-25T10:21:16.416Z,12.43
2019-02-25T10:22:26.383Z,12.25
2019-02-25T10:23:38.072Z,12.18
2019-02-25T10:24:48.210Z,12.07
2019-02-25T10:25:58.172Z,12.07
2019-02-25T10:27:08.169Z,12.08
2019-02-25T10:28:17.949Z,12.07
2019-02-25T10:29:27.925Z,12.2
2019-02-25T10:30:37.929Z,12.39
2019-02-25T10:31:48.603Z,12.76
2019-02-25T10:32:58.318Z,12.98
2019-02-25T10:34:10.055Z,13.26
2019-02-25T10:35:20.005Z,13.7
2019-02-25T10:36:30.088Z,13.97
2019-02-25T10:37:43.914Z,14.23
2019-02-25T10:38:53.683Z,14.48
2019-02-25T10:40:03.705Z,14.62
2019-02-25T10:41:13.673Z,14.52
2019-02-25T10:42:31.364Z,14.31
2019-02-25T10:43:44.690Z,14.36
2019-02-25T10:44:55.012Z,14.63
2019-02-25T10:46:06.729Z,14.71
2019-02-25T10:47:25.904Z,14.55
2019-02-25T10:48:35.842Z,14.49
2019-02-25T10:49:45.564Z,14.37
2019-02-25T10:51:02.548Z,14.56
2019-02-25T10:52:19.567Z,14.79
2019-02-25T10:53:29.297Z,14.87
2019-02-25T10:54:39.250Z,14.61
2019-02-25T10:55:53.213Z,14.38
2019-02-25T10:57:03.187Z,14.41
2019-02-25T10:58:13.172Z,14.78
2019-02-25T10:59:23.086Z,15.08
2019-02-25T11:00:35.739Z,15.41
2019-02-25T11:01:51.828Z,15.66
2019-02-25T11:03:03.074Z,15.85
2019-02-25T11:04:12.771Z,15.99
2019-02-25T11:05:32.141Z,16.08
2019-02-25T11:06:42.541Z,16.22
2019-02-25T11:07:52.498Z,15.73
2019-02-25T11:09:02.458Z,15.59
2019-02-25T11:10:17.780Z,15.57
2019-02-25T11:11:31.935Z,15.69
2019-02-25T11:12:42.700Z,15.85
2019-02-25T11:13:52.408Z,15.83
2019-02-25T11:15:05.058Z,15.99
2019-02-25T11:16:22.823Z,15.99
2019-02-25T11:17:32.832Z,15.9
2019-02-25T11:18:43.086Z,15.88
2019-02-25T11:19:54.848Z,15.87
2019-02-25T11:21:13.173Z,16.22
2019-02-25T11:22:22.876Z,16.43
2019-02-25T11:23:32.596Z,16.54
2019-02-25T11:24:42.326Z,16.66
2019-02-25T11:26:02.406Z,16.82
2019-02-25T11:27:14.792Z,16.98
2019-02-25T11:28:31.835Z,17.19
2019-02-25T11:29:50.922Z,17.28
2019-02-25T11:31:00.624Z,17.12
2019-02-25T11:32:10.342Z,16.66
2019-02-25T11:33:22.443Z,16.31
2019-02-25T11:34:42.366Z,16.1
2019-02-25T11:35:52.644Z,15.84
2019-02-25T11:37:04.353Z,15.63
2019-02-25T11:38:14.313Z,15.29
2019-02-25T11:39:25.261Z,15.48
2019-02-25T11:40:42.926Z,15.76
2019-02-25T11:41:53.147Z,16.22
2019-02-25T11:43:02.876Z,16.36
2019-02-25T11:44:16.977Z,16.25
2019-02-25T11:45:36.307Z,16.44
2019-02-25T11:46:46.428Z,16.68
2019-02-25T11:47:55.644Z,17.12
2019-02-25T11:49:05.430Z,17.37
2019-02-25T11:50:15.390Z,17.31
2019-02-25T11:51:27.149Z,17.24
2019-02-25T11:52:37.285Z,17.34
2019-02-25T11:53:47.484Z,17.04
2019-02-25T11:54:57.200Z,16.5
2019-02-25T11:56:07.157Z,16.39
2019-02-25T11:57:17.116Z,16.46
2019-02-25T11:58:27.078Z,16.44
2019-02-25T11:59:36.806Z,16.44
2019-02-25T12:00:46.918Z,16.5
2019-02-25T12:01:56.654Z,16.72
2019-02-25T12:03:06.621Z,16.76
2019-02-25T12:04:16.574Z,16.76
2019-02-25T12:05:26.326Z,16.99
2019-02-25T12:06:36.298Z,17.3
2019-02-25T12:07:46.266Z,17.38
2019-02-25T12:08:56.235Z,17.54
2019-02-25T12:10:06.014Z,17.69
2019-02-25T12:11:15.220Z,17.87
2019-02-25T12:12:24.923Z,17.63
2019-02-25T12:13:34.891Z,16.95
2019-02-25T12:14:44.420Z,16.54
2019-02-25T12:15:54.374Z,16.43
2019-02-25T12:17:04.070Z,16.49
2019-02-25T12:18:13.568Z,16.69
2019-02-25T12:19:23.302Z,16.99
2019-02-25T12:20:33.271Z,17.23
2019-02-25T12:21:44.798Z,17.6
2019-02-25T12:22:54.828Z,17.75
2019-02-25T12:24:04.837Z,17.84
2019-02-25T12:25:14.294Z,17.86
2019-02-25T12:26:24.024Z,17.59
2019-02-25T12:27:33.978Z,17.24
2019-02-25T12:28:43.948Z,17.01
2019-02-25T12:29:53.914Z,16.98
2019-02-25T12:31:03.882Z,17.09
2019-02-25T12:32:13.842Z,17.02
2019-02-25T12:33:23.804Z,17.02
2019-02-25T12:34:33.774Z,16.94
2019-02-25T12:35:43.243Z,16.73
2019-02-25T12:36:52.713Z,16.68
2019-02-25T12:38:02.510Z,16.49
2019-02-25T12:39:12.511Z,16.4
2019-02-25T12:40:22.476Z,16.25
2019-02-25T12:41:32.475Z,16.1
2019-02-25T12:42:42.428Z,16.12
2019-02-25T12:43:52.154Z,16.25
2019-02-25T12:45:01.863Z,16.32
2019-02-25T12:46:11.566Z,16.54
2019-02-25T12:47:21.540Z,16.8
2019-02-25T12:48:31.260Z,17.04
2019-02-25T12:49:41.236Z,17.12
2019-02-25T12:50:51.214Z,16.98
2019-02-25T12:52:01.175Z,16.84
2019-02-25T12:53:10.890Z,16.76
2019-02-25T12:54:20.624Z,16.55
2019-02-25T12:55:30.346Z,16.44
2019-02-25T12:56:39.828Z,16.37
2019-02-25T12:57:49.789Z,16.37
2019-02-25T12:58:59.781Z,16.39
2019-02-25T13:00:10.655Z,16.49
2019-02-25T13:01:20.629Z,16.41
2019-02-25T13:02:30.601Z,16.49
2019-02-25T13:03:40.597Z,16.43
2019-02-25T13:04:50.318Z,16.46
2019-02-25T13:06:01.521Z,16.41
2019-02-25T13:07:11.710Z,16.46
2019-02-25T13:08:21.430Z,16.46
2019-02-25T13:09:31.400Z,16.47
2019-02-25T13:10:41.475Z,16.43
2019-02-25T13:11:51.206Z,16.46
2019-02-25T13:13:00.930Z,16.44
2019-02-25T13:14:10.664Z,16.29
2019-02-25T13:15:20.147Z,16.26
2019-02-25T13:16:30.146Z,16.31
2019-02-25T13:17:39.874Z,16.28
2019-02-25T13:18:49.835Z,16.49
2019-02-25T13:19:59.567Z,16.55
2019-02-25T13:21:09.290Z,16.76
2019-02-25T13:22:19.102Z,16.82
2019-02-25T13:23:29.067Z,16.91
2019-02-25T13:24:41.985Z,16.95
2019-02-25T13:25:51.966Z,17.04
2019-02-25T13:27:05.642Z,17.07
2019-02-25T13:28:18.946Z,17.13
2019-02-25T13:29:33.210Z,17.22
2019-02-25T13:30:43.024Z,17.27
2019-02-25T13:31:53.086Z,17.39
2019-02-25T13:33:02.878Z,17.65
2019-02-25T13:34:12.436Z,17.59
2019-02-25T13:35:22.479Z,17.39
2019-02-25T13:36:32.526Z,17.47
2019-02-25T13:37:42.299Z,17.47
2019-02-25T13:38:52.371Z,17.57
2019-02-25T13:40:02.254Z,17.76
2019-02-25T13:41:12.351Z,17.88
2019-02-25T13:42:22.414Z,18.13
2019-02-25T13:43:32.482Z,18.28
2019-02-25T13:44:42.594Z,18.37
2019-02-25T13:45:52.708Z,18.21
2019-02-25T13:47:02.793Z,17.91
2019-02-25T13:48:12.382Z,17.76
2019-02-25T13:49:21.970Z,17.57
2019-02-25T13:50:32.102Z,17.66
2019-02-25T13:51:41.965Z,17.66
2019-02-25T13:52:53.601Z,17.68
2019-02-25T13:54:03.733Z,17.68
2019-02-25T13:55:13.568Z,17.68
2019-02-25T13:56:23.681Z,17.66
2019-02-25T13:57:33.819Z,17.54
2019-02-25T13:58:43.943Z,17.71
2019-02-25T13:59:53.752Z,17.69
2019-02-25T14:01:03.890Z,17.93
2019-02-25T14:02:14.012Z,17.69
2019-02-25T14:03:24.107Z,17.39
2019-02-25T14:04:33.994Z,17.38
2019-02-25T14:05:43.538Z,17.49
2019-02-25T14:06:53.340Z,17.34
2019-02-25T14:08:03.431Z,17.17
2019-02-25T14:09:13.495Z,17.07
2019-02-25T14:10:23.538Z,16.68
2019-02-25T14:11:33.324Z,16.43
2019-02-25T14:12:43.358Z,16.44
2019-02-25T14:13:53.681Z,16.62
2019-02-25T14:15:04.113Z,16.68
2019-02-25T14:16:14.400Z,16.83
2019-02-25T14:17:26.392Z,16.92
2019-02-25T14:18:37.059Z,17.12
2019-02-25T14:19:47.252Z,17.32
2019-02-25T14:20:59.898Z,17.53
2019-02-25T14:22:09.835Z,17.49
2019-02-25T14:23:25.022Z,17.46
2019-02-25T14:24:34.822Z,17.56
2019-02-25T14:25:48.060Z,17.41
2019-02-25T14:26:59.412Z,17.46
2019-02-25T14:28:12.874Z,17.57
2019-02-25T14:29:26.180Z,17.68
2019-02-25T14:30:38.370Z,17.66
2019-02-25T14:31:48.880Z,17.73
2019-02-25T14:33:00.688Z,17.65
2019-02-25T14:34:13.290Z,17.42
2019-02-25T14:35:22.873Z,17.16
2019-02-25T14:36:35.565Z,16.79
2019-02-25T14:37:45.371Z,16.4
2019-02-25T14:39:02.117Z,16.32
2019-02-25T14:40:24.364Z,16.02
2019-02-25T14:41:44.830Z,15.87
2019-02-25T14:43:03.330Z,15.85
2019-02-25T14:44:20.648Z,15.76
2019-02-25T14:45:46.391Z,15.84
2019-02-25T14:47:22.599Z,15.99
2019-02-25T14:48:44.314Z,16.03
2019-02-25T14:49:54.114Z,16.05
2019-02-25T14:51:03.672Z,16.22
2019-02-25T14:52:14.158Z,16.43
2019-02-25T14:53:26.661Z,16.51
2019-02-25T14:54:39.171Z,16.74
2019-02-25T14:55:58.292Z,16.79
2019-02-25T14:57:12.688Z,16.98
2019-02-25T14:58:22.770Z,17.09
2019-02-25T14:59:38.745Z,16.87
2019-02-25T15:00:48.553Z,16.64
2019-02-25T15:02:01.956Z,16.5
2019-02-25T15:03:17.832Z,16.41
2019-02-25T15:04:37.328Z,16.39
2019-02-25T15:05:53.041Z,16.5
2019-02-25T15:07:10.794Z,16.5
2019-02-25T15:08:28.263Z,16.62
2019-02-25T15:09:45.574Z,16.72
2019-02-25T15:10:57.924Z,16.73
2019-02-25T15:12:16.810Z,16.62
2019-02-25T15:13:36.967Z,16.44
2019-02-25T15:14:48.192Z,16.34
2019-02-25T15:15:58.005Z,16.21
2019-02-25T15:17:13.087Z,15.98
2019-02-25T15:18:29.586Z,15.76
2019-02-25T15:19:45.128Z,15.8
2019-02-25T15:20:56.418Z,15.85
2019-02-25T15:22:13.242Z,15.84
2019-02-25T15:23:29.823Z,15.78
2019-02-25T15:24:39.904Z,15.72
2019-02-25T15:26:04.789Z,15.73
2019-02-25T15:27:16.380Z,15.6
2019-02-25T15:28:27.766Z,15.59